Time;durP1;ratioP1;P1;durP2;ratioP2;P2;SDS_P1;SDS_P2;PMS_P1;PMS_P2;Temp;Humidity;BMP_temperature;BMP_pressure;BME280_temperature;BME280_humidity;BME280_pressure;Samples;Min_cycle;Max_cycle;Signal;HPM_P1;HPM_P2
2022/07/18 00:01:25;;;;;;;7.37;5.70;;;17.90;99.90;;;;;;5138526;27;20497;-86
2022/07/18 00:03:51;;;;;;;9.43;5.83;;;17.90;99.90;;;;;;5138904;27;20047;-86
2022/07/18 00:06:16;;;;;;;8.97;5.80;;;17.70;99.90;;;;;;5121245;27;20047;-86
2022/07/18 00:08:42;;;;;;;8.00;5.73;;;17.50;99.90;;;;;;5121448;27;20046;-87
2022/07/18 00:11:07;;;;;;;8.87;5.30;;;17.70;99.90;;;;;;5138247;27;20134;-87
2022/07/18 00:13:33;;;;;;;7.50;5.17;;;17.80;99.90;;;;;;5121301;27;20595;-86
2022/07/18 00:15:59;;;;;;;7.10;5.43;;;17.80;99.90;;;;;;5121433;27;20125;-86
2022/07/18 00:18:24;;;;;;;8.80;5.90;;;17.60;99.90;;;;;;5138277;27;20039;-86
2022/07/18 00:20:50;;;;;;;7.97;5.80;;;17.80;99.90;;;;;;5156531;27;20041;-86
2022/07/18 00:23:15;;;;;;;6.60;5.30;;;17.70;99.90;;;;;;5121592;27;20039;-87
2022/07/18 00:25:41;;;;;;;8.17;5.77;;;17.70;99.90;;;;;;5121162;27;20058;-86
2022/07/18 00:28:07;;;;;;;6.57;5.37;;;17.70;99.90;;;;;;5120923;27;20133;-87
2022/07/18 00:30:32;;;;;;;7.37;5.23;;;17.70;99.90;;;;;;5120877;27;20085;-86
2022/07/18 00:32:58;;;;;;;8.20;5.63;;;17.60;99.90;;;;;;5121054;27;20054;-87
2022/07/18 00:35:24;;;;;;;10.00;6.17;;;17.60;99.90;;;;;;5138143;27;20398;-87
2022/07/18 00:37:50;;;;;;;7.50;5.75;;;17.70;99.90;;;;;;5138151;27;20046;-87
2022/07/18 00:40:15;;;;;;;7.80;5.87;;;17.60;99.90;;;;;;5121083;27;20042;-86
2022/07/18 00:42:41;;;;;;;9.13;5.70;;;17.30;99.90;;;;;;5120855;27;20134;-87
2022/07/18 00:45:07;;;;;;;10.07;6.43;;;17.70;99.90;;;;;;5120898;27;20062;-87
2022/07/18 00:47:33;;;;;;;8.07;6.30;;;17.40;99.90;;;;;;5137807;27;20039;-86
2022/07/18 00:49:58;;;;;;;8.73;6.27;;;17.40;99.90;;;;;;5120767;27;20053;-87
2022/07/18 00:52:24;;;;;;;10.30;6.57;;;17.50;99.90;;;;;;5137859;27;20050;-86
2022/07/18 00:54:50;;;;;;;8.40;6.13;;;17.60;99.90;;;;;;5155873;27;20038;-86
2022/07/18 00:57:16;;;;;;;9.07;5.77;;;17.30;99.90;;;;;;5137682;27;20080;-86
2022/07/18 01:02:26;;;;;;;7.40;5.88;;;17.00;99.90;;;;;;5137741;27;20466;-87
2022/07/18 01:04:52;;;;;;;7.47;5.80;;;17.20;99.90;;;;;;5155814;27;20039;-86
2022/07/18 01:07:18;;;;;;;6.72;5.57;;;17.10;99.90;;;;;;5137384;27;20039;-87
2022/07/18 01:09:44;;;;;;;7.77;5.97;;;17.90;99.90;;;;;;5155741;27;20057;-87
2022/07/18 01:12:10;;;;;;;7.70;5.83;;;17.10;99.90;;;;;;5137221;27;20082;-87
2022/07/18 01:14:36;;;;;;;7.73;5.47;;;17.00;99.90;;;;;;5120169;27;20085;-87
2022/07/18 01:17:02;;;;;;;6.40;5.47;;;16.80;99.90;;;;;;5137046;27;20632;-86
2022/07/18 01:19:27;;;;;;;7.53;5.93;;;16.90;99.90;;;;;;5119918;27;20043;-87
2022/07/18 01:21:53;;;;;;;8.53;5.63;;;16.90;99.90;;;;;;5137601;27;20031;-86
2022/07/18 01:24:19;;;;;;;9.40;5.83;;;17.70;99.90;;;;;;5120158;27;20045;-86
2022/07/18 01:26:45;;;;;;;8.18;5.28;;;16.90;99.90;;;;;;5120065;27;20046;-87
2022/07/18 01:29:10;;;;;;;9.33;5.70;;;17.00;99.90;;;;;;5137407;27;20474;-88
2022/07/18 01:31:36;;;;;;;7.43;5.30;;;16.90;99.90;;;;;;5120194;27;20538;-88
2022/07/18 01:34:02;;;;;;;8.23;5.43;;;16.80;99.90;;;;;;5120181;27;20045;-88
2022/07/18 01:36:28;;;;;;;7.93;5.27;;;16.60;99.90;;;;;;5155446;27;20049;-88
2022/07/18 01:38:53;;;;;;;7.90;5.77;;;16.70;99.90;;;;;;5137219;27;20050;-88
2022/07/18 01:41:19;;;;;;;6.57;5.37;;;16.80;99.90;;;;;;5120030;27;20470;-86
2022/07/18 01:43:44;;;;;;;8.97;5.67;;;16.60;99.90;;;;;;5120037;27;20054;-88
2022/07/18 01:46:11;;;;;;;8.77;5.47;;;16.10;99.90;;;;;;5155991;27;20478;-88
2022/07/18 01:48:38;;;;;;;6.20;5.30;;;16.50;99.90;;;;;;5159455;27;20053;-88
2022/07/18 01:51:04;;;;;;;8.02;6.35;;;16.80;99.90;;;;;;5141392;27;20368;-88
2022/07/18 01:53:30;;;;;;;7.75;6.07;;;16.50;99.90;;;;;;5141046;27;20071;-87
2022/07/18 01:55:55;;;;;;;9.30;6.03;;;16.50;99.90;;;;;;5159441;27;20038;-85
2022/07/18 01:58:21;;;;;;;10.50;5.30;;;16.50;99.90;;;;;;5159498;27;20126;-88
2022/07/18 02:00:47;;;;;;;7.77;5.60;;;16.50;99.90;;;;;;5141132;27;20038;-88
2022/07/18 02:03:12;;;;;;;8.23;6.17;;;16.60;99.90;;;;;;5123993;27;20042;-87
2022/07/18 02:05:38;;;;;;;7.70;5.63;;;16.90;99.90;;;;;;5123936;27;20047;-88
2022/07/18 02:08:04;;;;;;;9.70;5.97;;;16.40;99.90;;;;;;5159265;27;20046;-87
2022/07/18 02:10:29;;;;;;;9.07;5.80;;;16.40;99.90;;;;;;5140769;27;20501;-88
2022/07/18 02:12:57;;;;;;;8.10;5.53;;;16.40;99.90;;;;;;5124417;27;20039;-88
2022/07/18 02:15:23;;;;;;;7.93;5.60;;;16.30;99.90;;;;;;5140476;27;20031;-88
2022/07/18 02:17:49;;;;;;;8.13;5.40;;;16.30;99.90;;;;;;5140934;27;20045;-88
2022/07/18 02:20:15;;;;;;;9.20;5.73;;;16.20;99.90;;;;;;5123719;27;20127;-87
2022/07/18 02:22:41;;;;;;;8.40;5.93;;;16.30;99.90;;;;;;5123765;27;20783;-88
2022/07/18 02:25:07;;;;;;;7.70;5.60;;;16.20;99.90;;;;;;5140632;27;20053;-87
2022/07/18 02:27:32;;;;;;;8.85;5.78;;;16.20;99.90;;;;;;5141258;27;20410;-86
2022/07/18 02:29:58;;;;;;;6.77;5.17;;;16.20;99.90;;;;;;5123467;27;20053;-87
2022/07/18 02:32:24;;;;;;;6.73;5.40;;;16.10;99.90;;;;;;5140327;27;20043;-87
2022/07/18 02:34:50;;;;;;;7.80;5.73;;;16.10;99.90;;;;;;5158681;27;20121;-87
2022/07/18 02:37:16;;;;;;;7.27;6.17;;;16.10;99.90;;;;;;5140467;27;20436;-87
2022/07/18 02:39:41;;;;;;;8.00;6.07;;;15.80;99.90;;;;;;5158562;27;20047;-87
2022/07/18 02:42:08;;;;;;;9.07;5.77;;;16.00;99.90;;;;;;5140263;27;20130;-87
2022/07/18 02:44:33;;;;;;;7.20;5.50;;;15.90;99.90;;;;;;5123006;27;20035;-87
2022/07/18 02:46:59;;;;;;;9.03;6.10;;;16.20;99.90;;;;;;5140053;27;20038;-87
2022/07/18 02:49:28;;;;;;;7.90;5.80;;;16.00;99.90;;;;;;5158463;27;20091;-87
2022/07/18 02:52:04;;;;;;;8.73;5.72;;;15.90;99.90;;;;;;5139905;27;20287;-87
2022/07/18 02:54:32;;;;;;;8.18;6.22;;;15.80;99.90;;;;;;5122849;27;20035;-87
2022/07/18 02:56:57;;;;;;;7.78;5.78;;;15.80;99.90;;;;;;5122918;27;20490;-87
2022/07/18 02:59:25;;;;;;;7.63;5.27;;;15.80;99.90;;;;;;5157003;27;20046;-87
2022/07/18 03:01:50;;;;;;;9.88;5.93;;;15.80;99.90;;;;;;5158180;27;20050;-87
2022/07/18 03:04:18;;;;;;;8.20;5.80;;;16.30;99.90;;;;;;5140004;27;20516;-88
2022/07/18 03:06:45;;;;;;;9.15;5.93;;;15.80;99.90;;;;;;5139810;27;20144;-86
2022/07/18 03:09:11;;;;;;;7.57;5.82;;;15.70;99.90;;;;;;5157793;27;20049;-87
2022/07/18 03:11:37;;;;;;;7.53;5.77;;;15.70;99.90;;;;;;5139403;27;20054;-87
2022/07/18 03:14:03;;;;;;;9.67;6.53;;;15.70;99.90;;;;;;5139581;27;20531;-87
2022/07/18 03:16:28;;;;;;;9.43;6.13;;;16.10;99.90;;;;;;5140152;27;20039;-87
2022/07/18 03:18:54;;;;;;;10.53;6.47;;;15.50;99.90;;;;;;5158052;27;20059;-87
2022/07/18 03:21:20;;;;;;;9.37;6.90;;;15.50;99.90;;;;;;5139689;27;20474;-87
2022/07/18 03:23:45;;;;;;;8.95;6.18;;;15.50;99.90;;;;;;5139502;27;20125;-87
2022/07/18 03:26:11;;;;;;;9.33;6.60;;;15.40;99.90;;;;;;5139235;27;20070;-87
2022/07/18 03:28:37;;;;;;;7.82;6.40;;;15.50;99.90;;;;;;5157554;27;20042;-87
2022/07/18 03:31:03;;;;;;;9.87;6.67;;;15.60;99.90;;;;;;5122204;27;20038;-87
2022/07/18 03:33:29;;;;;;;8.13;5.93;;;15.50;99.90;;;;;;5139375;27;20479;-87
2022/07/18 03:35:55;;;;;;;9.17;6.27;;;15.50;99.90;;;;;;5138982;27;20058;-88
2022/07/18 03:38:20;;;;;;;10.80;6.53;;;15.50;99.90;;;;;;5122102;27;20054;-87
2022/07/18 03:40:46;;;;;;;8.73;6.37;;;15.40;99.90;;;;;;5139227;27;20445;-87
2022/07/18 03:43:11;;;;;;;8.82;6.18;;;15.40;99.90;;;;;;5122566;27;20054;-88
2022/07/18 03:45:37;;;;;;;10.10;6.73;;;14.90;99.90;;;;;;5139108;27;20129;-88
2022/07/18 03:48:03;;;;;;;10.23;5.97;;;15.40;99.90;;;;;;5138958;27;20074;-87
2022/07/18 03:50:29;;;;;;;10.33;6.53;;;15.40;99.90;;;;;;5139074;27;20416;-88
2022/07/18 03:52:54;;;;;;;8.27;6.40;;;15.40;99.90;;;;;;5138958;27;20390;-89
2022/07/18 03:55:20;;;;;;;10.13;6.30;;;15.50;99.90;;;;;;5138810;27;20057;-87
2022/07/18 03:57:46;;;;;;;11.52;6.10;;;15.40;99.90;;;;;;5138940;27;20035;-83
2022/07/18 04:00:13;;;;;;;8.50;6.60;;;15.70;99.90;;;;;;5157015;27;20042;-85
2022/07/18 04:02:43;;;;;;;8.80;6.18;;;15.50;99.90;;;;;;5121674;27;20053;-85
2022/07/18 04:05:09;;;;;;;8.75;6.20;;;15.50;99.90;;;;;;5121595;27;20065;-85
2022/07/18 04:07:35;;;;;;;10.65;5.93;;;15.50;99.90;;;;;;5121386;27;20093;-85
2022/07/18 04:10:01;;;;;;;9.93;6.57;;;15.50;99.90;;;;;;5156204;27;20082;-86
2022/07/18 04:12:27;;;;;;;7.50;5.93;;;15.50;99.90;;;;;;5120825;27;20051;-86
2022/07/18 04:14:52;;;;;;;9.10;5.85;;;15.60;99.90;;;;;;5156728;27;20363;-85
2022/07/18 04:17:18;;;;;;;8.90;5.93;;;15.70;99.90;;;;;;5138536;27;20129;-86
2022/07/18 04:19:44;;;;;;;9.27;5.60;;;15.60;99.90;;;;;;5138722;27;20042;-86
2022/07/18 04:22:09;;;;;;;9.67;5.97;;;15.60;99.90;;;;;;5138164;27;20470;-84
2022/07/18 04:24:35;;;;;;;8.40;5.60;;;15.70;99.90;;;;;;5121288;27;20042;-84
2022/07/18 04:27:00;;;;;;;9.43;6.13;;;15.60;99.90;;;;;;5156566;27;20175;-83
2022/07/18 04:29:26;;;;;;;8.63;5.70;;;15.70;99.90;;;;;;5138260;27;20386;-83
2022/07/18 04:31:52;;;;;;;8.03;5.30;;;15.70;99.90;;;;;;5138313;27;20110;-84
2022/07/18 04:34:17;;;;;;;9.40;6.03;;;15.70;99.90;;;;;;5120736;27;20042;-82
2022/07/18 04:36:43;;;;;;;12.77;5.40;;;15.70;99.90;;;;;;5156260;27;20053;-83
2022/07/18 04:39:09;;;;;;;7.22;4.88;;;15.70;99.90;;;;;;5138369;27;20046;-80
2022/07/18 04:41:34;;;;;;;6.33;4.80;;;15.80;99.90;;;;;;5138411;27;20065;-81
2022/07/18 04:44:00;;;;;;;8.53;5.10;;;16.40;99.90;;;;;;5156234;27;20466;-83
2022/07/18 04:46:26;;;;;;;8.03;5.40;;;16.00;99.90;;;;;;5156014;27;20390;-82
2022/07/18 04:48:51;;;;;;;7.67;4.90;;;16.00;99.90;;;;;;5137791;27;20054;-83
2022/07/18 04:51:17;;;;;;;7.20;5.00;;;15.90;99.90;;;;;;5120842;27;20137;-83
2022/07/18 04:53:42;;;;;;;9.70;5.17;;;16.00;99.90;;;;;;5137641;27;20081;-81
2022/07/18 04:56:08;;;;;;;8.60;5.47;;;16.10;99.90;;;;;;5120806;27;20052;-80
2022/07/18 04:58:33;;;;;;;8.17;5.40;;;16.10;99.90;;;;;;5155649;27;20051;-83
2022/07/18 05:00:59;;;;;;;8.80;5.17;;;16.10;99.90;;;;;;5156088;27;20062;-82
2022/07/18 05:03:25;;;;;;;8.37;5.30;;;16.90;99.90;;;;;;5137662;27;20606;-83
2022/07/18 05:05:50;;;;;;;7.13;5.20;;;16.20;99.90;;;;;;5155849;27;20042;-83
2022/07/18 05:08:16;;;;;;;7.73;5.03;;;16.20;99.90;;;;;;5137443;27;20042;-83
2022/07/18 05:10:41;;;;;;;8.67;5.43;;;16.30;99.90;;;;;;5137395;27;20042;-84
2022/07/18 05:13:07;;;;;;;9.87;5.23;;;16.40;99.90;;;;;;5120572;27;20047;-83
2022/07/18 05:15:33;;;;;;;7.17;5.17;;;16.50;99.90;;;;;;5155590;27;20378;-83
2022/07/18 05:17:58;;;;;;;8.77;4.87;;;16.90;99.90;;;;;;5120307;27;20520;-85
2022/07/18 05:20:26;;;;;;;6.53;4.83;;;16.60;99.90;;;;;;5119961;27;20043;-88
2022/07/18 05:22:52;;;;;;;7.82;4.35;;;16.70;99.90;;;;;;5136967;27;20057;-90
2022/07/18 05:25:19;;;;;;;8.30;5.10;;;16.80;99.90;;;;;;5120180;27;20486;-89
2022/07/18 05:27:44;;;;;;;8.15;4.78;;;16.90;99.90;;;;;;5137436;27;20509;-89
2022/07/18 05:30:12;;;;;;;7.57;4.83;;;17.00;99.90;;;;;;5120034;27;20047;-88
2022/07/18 05:32:40;;;;;;;6.43;4.30;;;17.00;99.90;;;;;;5120225;27;20432;-89
2022/07/18 05:35:07;;;;;;;8.57;4.75;;;17.10;99.90;;;;;;5119902;27;20042;-88
2022/07/18 05:37:35;;;;;;;9.95;5.03;;;17.20;99.90;;;;;;5119964;27;20475;-88
2022/07/18 05:40:02;;;;;;;6.72;4.53;;;17.10;99.90;;;;;;5119920;27;20043;-88
2022/07/18 05:42:27;;;;;;;6.65;4.68;;;17.70;99.90;;;;;;5137156;27;20379;-87
2022/07/18 05:44:53;;;;;;;8.27;4.73;;;17.20;99.90;;;;;;5136984;27;20042;-87
2022/07/18 05:47:18;;;;;;;6.63;4.00;;;17.40;99.90;;;;;;5136599;27;20043;-87
2022/07/18 05:49:44;;;;;;;6.23;4.20;;;17.40;99.90;;;;;;5136772;27;20055;-87
2022/07/18 05:52:10;;;;;;;6.37;4.40;;;17.30;99.90;;;;;;5119915;27;20131;-86
2022/07/18 05:54:35;;;;;;;9.10;4.47;;;17.40;99.90;;;;;;5155165;27;20386;-88
2022/07/18 05:57:01;;;;;;;7.30;4.30;;;17.40;99.90;;;;;;5120040;27;20051;-87
2022/07/18 05:59:26;;;;;;;7.00;4.10;;;17.50;99.90;;;;;;5137092;27;20104;-82
2022/07/18 06:01:52;;;;;;;6.27;4.20;;;17.60;99.90;;;;;;5155039;27;20086;-83
2022/07/18 06:04:18;;;;;;;7.30;4.27;;;18.00;99.90;;;;;;5155100;27;20043;-81
2022/07/18 06:06:48;;;;;;;7.80;4.13;;;17.80;99.90;;;;;;5155589;27;20075;-83
2022/07/18 06:09:13;;;;;;;6.60;4.30;;;18.00;99.90;;;;;;5156018;27;20043;-86
2022/07/18 06:11:39;;;;;;;5.63;3.70;;;18.30;99.90;;;;;;5154924;27;20095;-85
2022/07/18 06:14:05;;;;;;;8.03;3.90;;;18.60;99.90;;;;;;5136436;27;20371;-85
2022/07/18 06:16:31;;;;;;;8.93;3.67;;;18.50;99.90;;;;;;5136387;27;20125;-86
2022/07/18 06:18:58;;;;;;;8.07;3.67;;;18.60;99.90;;;;;;5136546;27;20074;-86
2022/07/18 06:21:24;;;;;;;11.80;3.80;;;18.70;99.90;;;;;;5136516;27;20043;-84
2022/07/18 06:23:49;;;;;;;5.77;3.47;;;18.80;99.90;;;;;;5136762;27;20118;-84
2022/07/18 06:26:15;;;;;;;6.17;3.57;;;18.90;99.90;;;;;;5136562;27;20043;-86
2022/07/18 06:28:40;;;;;;;10.07;3.83;;;19.40;99.90;;;;;;5136480;27;20038;-86
2022/07/18 06:31:06;;;;;;;5.93;3.60;;;19.30;99.90;;;;;;5108303;27;20074;-85
2022/07/18 06:33:32;;;;;;;5.90;3.47;;;19.30;99.90;;;;;;5101495;27;20047;-88
2022/07/18 06:35:57;;;;;;;8.33;3.40;;;19.10;99.90;;;;;;5102520;27;20130;-87
2022/07/18 06:38:23;;;;;;;6.47;3.37;;;19.10;99.90;;;;;;5102743;27;20089;-87
2022/07/18 06:40:49;;;;;;;7.17;3.17;;;19.00;99.90;;;;;;5119793;27;20050;-84
2022/07/18 06:43:19;;;;;;;5.93;2.87;;;19.30;99.90;;;;;;5119308;27;20047;-85
2022/07/18 06:45:46;;;;;;;7.43;2.97;;;19.40;99.90;;;;;;5119583;27;20070;-83
2022/07/18 06:48:12;;;;;;;6.30;2.92;;;19.50;99.90;;;;;;5137652;27;20442;-84
2022/07/18 06:50:38;;;;;;;5.30;3.13;;;19.50;99.90;;;;;;5119345;27;20046;-85
2022/07/18 06:53:03;;;;;;;10.87;2.93;;;19.70;99.90;;;;;;5137410;27;20383;-84
2022/07/18 06:55:29;;;;;;;6.63;3.03;;;19.90;99.90;;;;;;5137447;27;20078;-84
2022/07/18 06:57:55;;;;;;;5.27;2.93;;;19.90;99.90;;;;;;5119234;27;20117;-84
2022/07/18 07:00:20;;;;;;;5.60;3.10;;;20.10;99.90;;;;;;5137091;27;20039;-83
2022/07/18 07:02:48;;;;;;;5.70;2.70;;;20.00;99.90;;;;;;5101892;27;20043;-82
2022/07/18 07:05:16;;;;;;;7.32;2.75;;;20.10;99.90;;;;;;5118988;27;20095;-83
2022/07/18 07:07:42;;;;;;;5.90;2.78;;;20.10;99.90;;;;;;5118726;27;20405;-84
2022/07/18 07:10:08;;;;;;;5.00;2.88;;;20.40;99.90;;;;;;5137137;27;20047;-85
2022/07/18 07:12:44;;;;;;;7.80;2.57;;;20.20;99.90;;;;;;5118640;27;20057;-84
2022/07/18 07:15:10;;;;;;;4.73;2.50;;;20.30;99.90;;;;;;5118690;27;20039;-84
2022/07/18 07:17:37;;;;;;;4.27;2.57;;;20.50;99.90;;;;;;5118953;27;20386;-84
2022/07/18 07:20:07;;;;;;;4.75;2.65;;;20.50;99.90;;;;;;5118252;27;20036;-85
2022/07/18 07:22:44;;;;;;;6.10;2.58;;;20.70;99.90;;;;;;5118642;27;20039;-85
2022/07/18 07:25:10;;;;;;;6.25;2.53;;;20.80;99.90;;;;;;5118481;27;20047;-85
2022/07/18 07:27:36;;;;;;;6.35;2.35;;;21.30;99.90;;;;;;5136797;27;20384;-85
2022/07/18 07:30:03;;;;;;;6.00;2.20;;;21.20;99.90;;;;;;5136580;27;20054;-85
2022/07/18 07:32:28;;;;;;;7.78;2.30;;;21.40;99.90;;;;;;5136220;27;20130;-83
2022/07/18 07:34:54;;;;;;;5.43;2.30;;;21.60;99.70;;;;;;5118431;27;20175;-83
2022/07/18 07:37:19;;;;;;;4.60;2.20;;;21.80;98.60;;;;;;5136545;27;20066;-82
2022/07/18 07:39:46;;;;;;;12.67;2.40;;;22.00;99.30;;;;;;5136576;27;20051;-83
2022/07/18 07:42:11;;;;;;;5.75;2.42;;;22.10;99.00;;;;;;5118207;27;20510;-83
2022/07/18 07:44:37;;;;;;;6.13;2.07;;;22.30;99.10;;;;;;5117671;27;20039;-82
2022/07/18 07:47:02;;;;;;;5.47;2.07;;;22.50;99.00;;;;;;5101304;27;20394;-84
2022/07/18 07:49:28;;;;;;;6.63;2.13;;;22.60;98.60;;;;;;5118098;27;20091;-82
2022/07/18 07:51:54;;;;;;;5.40;2.22;;;22.70;98.10;;;;;;5136317;27;20051;-82
2022/07/18 07:54:20;;;;;;;4.23;2.17;;;22.70;97.80;;;;;;5101115;27;20042;-84
2022/07/18 07:56:45;;;;;;;6.27;2.20;;;23.00;98.00;;;;;;5118007;27;20039;-84
2022/07/18 07:59:11;;;;;;;5.80;1.97;;;23.00;97.80;;;;;;5117987;27;20043;-84
2022/07/18 08:01:36;;;;;;;3.83;2.13;;;23.30;97.60;;;;;;5117537;27;20038;-85
2022/07/18 08:04:02;;;;;;;9.97;2.00;;;23.50;98.10;;;;;;5135949;27;20039;-88
2022/07/18 08:06:28;;;;;;;4.40;1.93;;;23.60;98.00;;;;;;5136355;27;20475;-83
2022/07/18 08:08:53;;;;;;;4.00;1.83;;;24.10;97.80;;;;;;5117753;27;20091;-84
2022/07/18 08:11:19;;;;;;;9.20;2.33;;;24.00;97.80;;;;;;5117648;27;20135;-85
2022/07/18 08:13:44;;;;;;;5.67;1.87;;;24.20;97.10;;;;;;5117721;27;20082;-84
2022/07/18 08:16:10;;;;;;;6.57;1.80;;;24.40;96.40;;;;;;5117581;27;20039;-85
2022/07/18 08:18:36;;;;;;;5.43;1.90;;;24.60;96.00;;;;;;5135734;27;20463;-84
2022/07/18 08:21:02;;;;;;;9.20;1.87;;;24.80;95.50;;;;;;5135563;27;20045;-84
2022/07/18 08:23:28;;;;;;;;;;;24.80;95.20;;;;;;5136110;27;20057;-85
2022/07/18 08:25:53;;;;;;;5.18;1.90;;;24.90;94.40;;;;;;5134449;27;19919;-84
2022/07/18 08:28:19;;;;;;;3.47;1.60;;;25.00;94.60;;;;;;5117571;27;20039;-85
2022/07/18 08:30:45;;;;;;;5.73;1.60;;;25.00;94.50;;;;;;5135715;27;20089;-83
2022/07/18 08:33:10;;;;;;;5.87;1.83;;;25.10;94.40;;;;;;5135380;27;20482;-84
2022/07/18 08:35:36;;;;;;;7.47;1.60;;;25.30;94.20;;;;;;5135156;27;20080;-87
2022/07/18 08:38:03;;;;;;;5.20;1.63;;;25.30;93.80;;;;;;5135579;27;20515;-88
2022/07/18 08:40:28;;;;;;;;;;;25.50;93.50;;;;;;5100789;27;20051;-87
2022/07/18 08:42:55;;;;;;;4.88;1.55;;;25.40;92.50;;;;;;5100065;27;20248;-87
2022/07/18 08:45:23;;;;;;;6.93;1.90;;;25.50;93.30;;;;;;5135039;27;20043;-86
2022/07/18 08:47:50;;;;;;;4.03;1.48;;;25.60;93.60;;;;;;5100013;27;20047;-87
2022/07/18 08:50:16;;;;;;;4.38;1.30;;;25.60;93.50;;;;;;5116960;27;20117;-86
2022/07/18 08:52:41;;;;;;;3.20;1.40;;;25.90;93.50;;;;;;5135326;27;20078;-85
2022/07/18 08:55:08;;;;;;;3.80;1.60;;;25.80;93.20;;;;;;5134809;27;20083;-86
2022/07/18 08:57:34;;;;;;;6.68;1.90;;;25.90;93.30;;;;;;5135126;27;20678;-86
2022/07/18 09:00:01;;;;;;;4.50;1.37;;;26.00;93.20;;;;;;5116749;27;20125;-84
2022/07/18 09:02:27;;;;;;;6.78;1.55;;;26.10;93.20;;;;;;5134546;27;20043;-86
2022/07/18 09:04:53;;;;;;;4.20;1.42;;;26.30;92.70;;;;;;5116754;27;20039;-86
2022/07/18 09:07:30;;;;;;;4.88;1.20;;;26.40;92.00;;;;;;5116765;27;20062;-86
2022/07/18 09:10:02;;;;;;;7.95;1.50;;;26.60;90.90;;;;;;5116686;27;20043;-87
2022/07/18 09:12:30;;;;;;;5.43;1.50;;;26.70;90.90;;;;;;5134391;27;20384;-87
2022/07/18 09:14:57;;;;;;;3.35;1.30;;;26.90;90.70;;;;;;5099110;27;20031;-84
2022/07/18 09:17:25;;;;;;;4.13;1.45;;;27.00;90.70;;;;;;5116805;27;20427;-86
2022/07/18 09:20:03;;;;;;;5.32;1.50;;;27.10;90.60;;;;;;5116093;27;20051;-83
2022/07/18 09:22:32;;;;;;;3.42;1.50;;;27.30;90.10;;;;;;5116592;28;20088;-86
2022/07/18 09:25:10;;;;;;;4.10;1.80;;;27.40;89.70;;;;;;5116382;27;20074;-84
2022/07/18 09:27:50;;;;;;;4.22;1.40;;;27.50;87.90;;;;;;5116031;27;20111;-85
2022/07/18 09:30:24;;;;;;;3.75;1.50;;;27.50;87.20;;;;;;5116282;27;20047;-83
2022/07/18 09:33:11;;;;;;;6.63;1.70;;;27.60;86.90;;;;;;5099570;27;20391;-83
2022/07/18 09:35:50;;;;;;;6.93;1.50;;;27.70;87.50;;;;;;5116236;28;20043;-87
2022/07/18 09:38:21;;;;;;;6.53;1.65;;;27.70;85.40;;;;;;5099230;28;20184;-84
2022/07/18 09:40:52;;;;;;;4.72;1.50;;;27.70;86.10;;;;;;5134479;28;20092;-85
2022/07/18 09:43:23;;;;;;;5.07;1.50;;;27.70;85.60;;;;;;5134273;28;20132;-83
2022/07/18 09:45:52;;;;;;;4.50;1.30;;;27.80;86.10;;;;;;5099135;28;20047;-85
2022/07/18 09:48:26;;;;;;;2.58;1.08;;;27.90;86.00;;;;;;5115764;28;20429;-87
2022/07/18 09:51:04;;;;;;;3.80;1.40;;;28.00;85.10;;;;;;5134388;28;20086;-88
2022/07/18 09:53:37;;;;;;;4.50;1.33;;;28.10;83.60;;;;;;5099429;28;20070;-86
2022/07/18 09:56:06;;;;;;;4.63;1.63;;;28.20;84.20;;;;;;5099283;28;20047;-87
2022/07/18 09:58:49;;;;;;;4.63;1.63;;;28.10;82.70;;;;;;5134115;28;20061;-83
2022/07/18 10:01:15;;;;;;;3.78;1.33;;;28.10;83.30;;;;;;5099253;28;20053;-82
2022/07/18 10:03:40;;;;;;;8.77;1.63;;;28.20;82.80;;;;;;5134344;28;20479;-82
2022/07/18 10:06:06;;;;;;;3.90;1.43;;;28.20;82.30;;;;;;5115758;28;20047;-82
2022/07/18 10:08:34;;;;;;;5.65;1.77;;;28.30;82.70;;;;;;5137426;27;20039;-80
2022/07/18 10:11:01;;;;;;;5.88;2.00;;;28.40;82.80;;;;;;5138161;27;20047;-85
2022/07/18 10:13:29;;;;;;;4.65;1.80;;;28.40;82.40;;;;;;5138117;27;20055;-85
2022/07/18 10:15:54;;;;;;;3.28;1.90;;;28.50;81.70;;;;;;5119084;27;20118;-82
2022/07/18 10:18:23;;;;;;;3.90;1.60;;;28.40;80.50;;;;;;5120016;27;20089;-80
2022/07/18 10:21:04;;;;;;;4.10;1.85;;;28.40;80.60;;;;;;5119753;27;20047;-82
2022/07/18 10:23:33;;;;;;;5.90;2.00;;;28.40;81.90;;;;;;5119840;27;20039;-82
2022/07/18 10:26:12;;;;;;;5.97;1.67;;;28.50;81.30;;;;;;5137839;27;20086;-79
2022/07/18 10:28:58;;;;;;;4.38;1.75;;;28.60;80.90;;;;;;5138483;27;20043;-84
2022/07/18 10:31:31;;;;;;;4.53;1.88;;;28.70;80.60;;;;;;5137730;27;20055;-81
2022/07/18 10:34:28;;;;;;;6.45;1.70;;;28.80;80.60;;;;;;5137716;27;20087;-81
2022/07/18 10:36:54;;;;;;;5.78;2.03;;;29.00;78.00;;;;;;5118066;27;20399;-82
2022/07/18 10:39:21;;;;;;;6.75;2.30;;;29.00;79.00;;;;;;5119423;27;20043;-83
2022/07/18 10:41:46;;;;;;;4.55;1.90;;;28.90;78.50;;;;;;5137717;27;20035;-82
2022/07/18 10:44:24;;;;;;;5.33;2.20;;;28.80;78.90;;;;;;5137700;27;20046;-84
2022/07/18 10:47:09;;;;;;;5.78;1.98;;;28.80;79.30;;;;;;5119315;27;20130;-82
2022/07/18 10:49:51;;;;;;;6.55;2.20;;;28.90;78.80;;;;;;5119747;27;20043;-84
2022/07/18 10:52:26;;;;;;;3.78;2.03;;;28.90;79.50;;;;;;5137515;27;20047;-86
2022/07/18 10:55:15;;;;;;;5.30;1.75;;;29.00;78.50;;;;;;5119164;27;20429;-85
2022/07/18 10:58:05;;;;;;;5.68;1.90;;;29.00;79.30;;;;;;5119363;27;20506;-85
2022/07/18 11:00:36;;;;;;;5.50;1.85;;;29.10;80.10;;;;;;5101906;27;20054;-84
2022/07/18 11:03:07;;;;;;;4.25;1.55;;;29.30;80.60;;;;;;5118828;27;20478;-86
2022/07/18 11:05:35;;;;;;;5.93;1.83;;;29.40;79.70;;;;;;5118814;27;20144;-80
2022/07/18 11:08:03;;;;;;;4.85;1.92;;;29.60;78.80;;;;;;5118860;27;20047;-82
2022/07/18 11:10:45;;;;;;;5.63;1.90;;;29.70;77.90;;;;;;5118928;27;20042;-81
2022/07/18 11:13:29;;;;;;;6.22;2.00;;;29.80;76.40;;;;;;5118930;27;20051;-83
2022/07/18 11:16:04;;;;;;;4.97;1.90;;;29.70;74.50;;;;;;5136685;27;20500;-82
2022/07/18 11:18:31;;;;;;;4.70;1.83;;;29.70;76.90;;;;;;5101487;28;20039;-83
2022/07/18 11:20:57;;;;;;;3.65;2.05;;;29.70;76.00;;;;;;5136461;27;20051;-85
2022/07/18 11:23:24;;;;;;;5.15;1.98;;;29.70;76.50;;;;;;5118699;27;20043;-85
2022/07/18 11:25:56;;;;;;;4.80;1.70;;;29.80;76.60;;;;;;5136809;27;20046;-83
2022/07/18 11:28:22;;;;;;;4.97;1.83;;;29.80;75.30;;;;;;5136724;27;20081;-83
2022/07/18 11:31:05;;;;;;;6.03;2.20;;;29.90;76.20;;;;;;5101648;27;20089;-83
2022/07/18 11:33:36;;;;;;;4.53;2.15;;;29.90;75.30;;;;;;5136900;27;20089;-84
2022/07/18 11:36:11;;;;;;;4.18;2.00;;;29.80;73.10;;;;;;5101725;27;20046;-82
2022/07/18 11:38:56;;;;;;;3.92;2.30;;;29.80;73.30;;;;;;5136745;27;20406;-83
2022/07/18 11:41:23;;;;;;;5.95;2.33;;;29.80;72.70;;;;;;5136227;27;20047;-84
2022/07/18 11:43:50;;;;;;;6.20;2.40;;;30.00;73.80;;;;;;5136440;27;20039;-84
2022/07/18 11:46:18;;;;;;;6.80;2.28;;;30.10;73.70;;;;;;5118099;27;20043;-83
2022/07/18 11:48:46;;;;;;;5.60;2.58;;;30.30;73.90;;;;;;5118371;27;20043;-84
2022/07/18 11:51:18;;;;;;;4.53;2.35;;;30.30;73.50;;;;;;5136155;27;20594;-85
2022/07/18 11:53:49;;;;;;;3.75;2.20;;;30.30;72.80;;;;;;5136329;27;20083;-84
2022/07/18 11:56:16;;;;;;;5.68;2.40;;;30.40;73.60;;;;;;5136258;27;20043;-83
2022/07/18 11:58:43;;;;;;;6.72;2.05;;;30.40;74.50;;;;;;5117967;27;20039;-84
2022/07/18 12:01:09;;;;;;;5.38;2.75;;;30.40;73.70;;;;;;5118332;27;20047;-84
2022/07/18 12:03:44;;;;;;;5.45;2.67;;;30.50;72.50;;;;;;5117948;27;20157;-84
2022/07/18 12:06:17;;;;;;;5.57;2.40;;;30.40;70.80;;;;;;5117907;27;20039;-83
2022/07/18 12:08:45;;;;;;;4.00;2.50;;;30.40;71.60;;;;;;5136086;27;20391;-82
2022/07/18 12:11:20;;;;;;;6.22;2.88;;;30.30;71.90;;;;;;5136012;27;20452;-85
2022/07/18 12:13:57;;;;;;;5.47;2.30;;;30.20;73.30;;;;;;5117762;27;20039;-84
2022/07/18 12:16:26;;;;;;;6.07;2.40;;;30.10;71.90;;;;;;5117625;27;20448;-82
2022/07/18 12:18:59;;;;;;;8.80;3.30;;;30.00;73.00;;;;;;5135449;27;20047;-84
2022/07/18 12:21:49;;;;;;;4.40;2.83;;;29.90;72.70;;;;;;5117693;27;20483;-84
2022/07/18 12:24:17;;;;;;;6.25;2.55;;;29.80;72.30;;;;;;5117517;27;20082;-83
2022/07/18 12:26:43;;;;;;;7.75;2.70;;;29.80;72.30;;;;;;5135454;27;20054;-78
2022/07/18 12:29:09;;;;;;;6.70;2.67;;;29.70;72.70;;;;;;5135728;27;20051;-84
2022/07/18 12:31:43;;;;;;;4.05;2.35;;;29.70;73.50;;;;;;5116737;27;20047;-84
2022/07/18 12:34:14;;;;;;;5.60;2.67;;;29.60;73.60;;;;;;5117491;27;20100;-81
2022/07/18 12:36:57;;;;;;;18.75;4.30;;;29.60;73.10;;;;;;5135715;27;20428;-82
2022/07/18 12:39:41;;;;;;;6.63;2.20;;;29.60;73.60;;;;;;5117568;27;20096;-85
2022/07/18 12:42:07;;;;;;;5.20;2.30;;;29.70;74.50;;;;;;5135619;27;20047;-83
2022/07/18 12:44:32;;;;;;;5.20;2.60;;;29.80;74.50;;;;;;5117483;27;20054;-87
2022/07/18 12:46:58;;;;;;;4.73;2.20;;;30.00;74.40;;;;;;5100195;27;20110;-85
2022/07/18 12:49:23;;;;;;;4.93;2.40;;;30.20;74.40;;;;;;5100273;27;20288;-86
2022/07/18 12:51:50;;;;;;;5.67;2.43;;;30.30;73.30;;;;;;5117251;27;20039;-86
2022/07/18 12:54:16;;;;;;;4.72;2.45;;;30.30;72.80;;;;;;5117085;27;20296;-86